sensor_id;sensor_type;location;lat;lon;timestamp;P1;durP1;ratioP1;P2;durP2;ratioP2
60372;SDS011;46216;52.220;5.134;2023-08-20T00:00:32;5.97;;;2.50;;
60372;SDS011;46216;52.220;5.134;2023-08-20T00:02:59;6.75;;;2.70;;
60372;SDS011;46216;52.220;5.134;2023-08-20T00:05:38;6.07;;;2.47;;
60372;SDS011;46216;52.220;5.134;2023-08-20T00:08:04;6.82;;;2.65;;
60372;SDS011;46216;52.220;5.134;2023-08-20T00:10:29;9.98;;;2.65;;
60372;SDS011;46216;52.220;5.134;2023-08-20T00:12:55;8.25;;;3.05;;
60372;SDS011;46216;52.220;5.134;2023-08-20T00:15:20;7.18;;;2.80;;
60372;SDS011;46216;52.220;5.134;2023-08-20T00:17:54;7.20;;;2.70;;
60372;SDS011;46216;52.220;5.134;2023-08-20T00:20:23;7.38;;;2.42;;
60372;SDS011;46216;52.220;5.134;2023-08-20T00:22:49;9.02;;;2.50;;
60372;SDS011;46216;52.220;5.134;2023-08-20T00:25:15;9.00;;;2.47;;
60372;SDS011;46216;52.220;5.134;2023-08-20T00:27:42;7.20;;;2.60;;
60372;SDS011;46216;52.220;5.134;2023-08-20T00:30:08;7.82;;;2.63;;
60372;SDS011;46216;52.220;5.134;2023-08-20T00:32:35;6.95;;;2.53;;
60372;SDS011;46216;52.220;5.134;2023-08-20T00:35:02;8.02;;;2.47;;
60372;SDS011;46216;52.220;5.134;2023-08-20T00:37:28;7.13;;;2.35;;
60372;SDS011;46216;52.220;5.134;2023-08-20T00:39:54;9.20;;;2.72;;
60372;SDS011;46216;52.220;5.134;2023-08-20T00:42:19;7.10;;;2.50;;
60372;SDS011;46216;52.220;5.134;2023-08-20T00:44:45;6.57;;;2.55;;
60372;SDS011;46216;52.220;5.134;2023-08-20T00:47:10;5.20;;;2.35;;
60372;SDS011;46216;52.220;5.134;2023-08-20T00:49:37;8.93;;;2.60;;
60372;SDS011;46216;52.220;5.134;2023-08-20T00:52:09;9.82;;;2.70;;
60372;SDS011;46216;52.220;5.134;2023-08-20T00:54:37;7.53;;;2.40;;
60372;SDS011;46216;52.220;5.134;2023-08-20T00:57:09;7.68;;;2.50;;
60372;SDS011;46216;52.220;5.134;2023-08-20T00:59:38;5.20;;;2.47;;
60372;SDS011;46216;52.220;5.134;2023-08-20T01:02:03;6.68;;;2.60;;
60372;SDS011;46216;52.220;5.134;2023-08-20T01:04:30;5.72;;;2.10;;
60372;SDS011;46216;52.220;5.134;2023-08-20T01:07:11;6.72;;;2.10;;
60372;SDS011;46216;52.220;5.134;2023-08-20T01:09:50;7.68;;;2.53;;
60372;SDS011;46216;52.220;5.134;2023-08-20T01:12:22;5.63;;;2.20;;
60372;SDS011;46216;52.220;5.134;2023-08-20T01:14:49;7.53;;;2.20;;
60372;SDS011;46216;52.220;5.134;2023-08-20T01:17:14;9.23;;;2.50;;
60372;SDS011;46216;52.220;5.134;2023-08-20T01:19:40;10.88;;;2.70;;
60372;SDS011;46216;52.220;5.134;2023-08-20T01:30:26;6.35;;;2.38;;
60372;SDS011;46216;52.220;5.134;2023-08-20T01:32:52;8.20;;;2.47;;
60372;SDS011;46216;52.220;5.134;2023-08-20T01:35:19;9.82;;;2.30;;
60372;SDS011;46216;52.220;5.134;2023-08-20T01:37:44;8.13;;;2.30;;
60372;SDS011;46216;52.220;5.134;2023-08-20T01:40:10;9.75;;;2.38;;
60372;SDS011;46216;52.220;5.134;2023-08-20T01:42:38;5.90;;;2.28;;
60372;SDS011;46216;52.220;5.134;2023-08-20T01:45:05;5.47;;;2.30;;
60372;SDS011;46216;52.220;5.134;2023-08-20T01:47:34;10.48;;;2.08;;
60372;SDS011;46216;52.220;5.134;2023-08-20T01:49:59;6.60;;;2.28;;
60372;SDS011;46216;52.220;5.134;2023-08-20T01:52:25;9.18;;;2.30;;
60372;SDS011;46216;52.220;5.134;2023-08-20T01:54:50;8.02;;;2.30;;
60372;SDS011;46216;52.220;5.134;2023-08-20T01:57:17;6.72;;;2.35;;
60372;SDS011;46216;52.220;5.134;2023-08-20T01:59:43;6.82;;;2.10;;
60372;SDS011;46216;52.220;5.134;2023-08-20T02:02:08;6.40;;;1.88;;
60372;SDS011;46216;52.220;5.134;2023-08-20T02:04:34;6.47;;;2.13;;
60372;SDS011;46216;52.220;5.134;2023-08-20T02:06:59;6.15;;;2.38;;
60372;SDS011;46216;52.220;5.134;2023-08-20T02:09:25;6.07;;;1.95;;
60372;SDS011;46216;52.220;5.134;2023-08-20T02:11:50;7.28;;;2.38;;
60372;SDS011;46216;52.220;5.134;2023-08-20T02:14:16;7.70;;;2.22;;
60372;SDS011;46216;52.220;5.134;2023-08-20T02:16:42;5.20;;;2.15;;
60372;SDS011;46216;52.220;5.134;2023-08-20T02:19:07;7.28;;;2.35;;
60372;SDS011;46216;52.220;5.134;2023-08-20T02:21:33;8.25;;;2.60;;
60372;SDS011;46216;52.220;5.134;2023-08-20T02:23:58;6.38;;;2.20;;
60372;SDS011;46216;52.220;5.134;2023-08-20T02:26:24;9.25;;;2.28;;
60372;SDS011;46216;52.220;5.134;2023-08-20T02:28:49;7.20;;;2.30;;
60372;SDS011;46216;52.220;5.134;2023-08-20T02:31:15;6.22;;;2.10;;
60372;SDS011;46216;52.220;5.134;2023-08-20T02:33:40;6.60;;;2.30;;
60372;SDS011;46216;52.220;5.134;2023-08-20T02:36:06;7.65;;;2.15;;
60372;SDS011;46216;52.220;5.134;2023-08-20T02:38:31;6.30;;;2.33;;
60372;SDS011;46216;52.220;5.134;2023-08-20T02:40:57;4.88;;;2.33;;
60372;SDS011;46216;52.220;5.134;2023-08-20T02:43:22;10.60;;;2.85;;
60372;SDS011;46216;52.220;5.134;2023-08-20T02:45:48;7.95;;;2.88;;
60372;SDS011;46216;52.220;5.134;2023-08-20T02:48:14;8.13;;;2.92;;
60372;SDS011;46216;52.220;5.134;2023-08-20T02:50:40;7.50;;;2.70;;
60372;SDS011;46216;52.220;5.134;2023-08-20T02:53:06;5.43;;;2.20;;
60372;SDS011;46216;52.220;5.134;2023-08-20T02:55:32;9.10;;;3.13;;
60372;SDS011;46216;52.220;5.134;2023-08-20T02:57:58;8.25;;;2.63;;
60372;SDS011;46216;52.220;5.134;2023-08-20T03:00:23;8.77;;;2.97;;
60372;SDS011;46216;52.220;5.134;2023-08-20T03:02:49;8.13;;;2.40;;
60372;SDS011;46216;52.220;5.134;2023-08-20T03:05:14;6.82;;;2.65;;
60372;SDS011;46216;52.220;5.134;2023-08-20T03:07:40;5.97;;;2.40;;
60372;SDS011;46216;52.220;5.134;2023-08-20T03:10:05;8.10;;;2.85;;
60372;SDS011;46216;52.220;5.134;2023-08-20T03:12:31;6.53;;;2.50;;
60372;SDS011;46216;52.220;5.134;2023-08-20T03:14:57;7.80;;;2.83;;
60372;SDS011;46216;52.220;5.134;2023-08-20T03:17:23;7.65;;;2.72;;
60372;SDS011;46216;52.220;5.134;2023-08-20T03:19:58;8.27;;;2.63;;
60372;SDS011;46216;52.220;5.134;2023-08-20T03:22:25;8.18;;;2.80;;
60372;SDS011;46216;52.220;5.134;2023-08-20T03:24:52;11.23;;;3.33;;
60372;SDS011;46216;52.220;5.134;2023-08-20T03:27:18;9.57;;;2.42;;
60372;SDS011;46216;52.220;5.134;2023-08-20T03:29:43;6.50;;;2.53;;
60372;SDS011;46216;52.220;5.134;2023-08-20T03:32:09;6.50;;;2.75;;
60372;SDS011;46216;52.220;5.134;2023-08-20T03:34:35;7.65;;;2.85;;
60372;SDS011;46216;52.220;5.134;2023-08-20T03:37:01;7.00;;;2.47;;
60372;SDS011;46216;52.220;5.134;2023-08-20T03:39:26;8.63;;;3.10;;
60372;SDS011;46216;52.220;5.134;2023-08-20T03:41:52;8.07;;;2.85;;
60372;SDS011;46216;52.220;5.134;2023-08-20T03:44:17;7.45;;;3.03;;
60372;SDS011;46216;52.220;5.134;2023-08-20T03:46:43;11.40;;;2.97;;
60372;SDS011;46216;52.220;5.134;2023-08-20T03:49:08;9.65;;;3.40;;
60372;SDS011;46216;52.220;5.134;2023-08-20T03:51:34;8.90;;;2.95;;
60372;SDS011;46216;52.220;5.134;2023-08-20T03:53:59;8.23;;;3.10;;
60372;SDS011;46216;52.220;5.134;2023-08-20T03:56:24;6.90;;;3.00;;
60372;SDS011;46216;52.220;5.134;2023-08-20T03:58:50;9.02;;;3.63;;
60372;SDS011;46216;52.220;5.134;2023-08-20T04:01:15;7.60;;;3.00;;
60372;SDS011;46216;52.220;5.134;2023-08-20T04:03:45;6.85;;;2.80;;
60372;SDS011;46216;52.220;5.134;2023-08-20T04:06:11;8.95;;;3.10;;
60372;SDS011;46216;52.220;5.134;2023-08-20T04:08:36;9.65;;;3.28;;
60372;SDS011;46216;52.220;5.134;2023-08-20T04:11:01;8.02;;;2.83;;
60372;SDS011;46216;52.220;5.134;2023-08-20T04:13:28;8.98;;;3.30;;
60372;SDS011;46216;52.220;5.134;2023-08-20T04:15:53;6.70;;;3.40;;
60372;SDS011;46216;52.220;5.134;2023-08-20T04:18:19;10.40;;;3.55;;
60372;SDS011;46216;52.220;5.134;2023-08-20T04:20:44;10.13;;;3.30;;
60372;SDS011;46216;52.220;5.134;2023-08-20T04:23:11;7.72;;;3.10;;
60372;SDS011;46216;52.220;5.134;2023-08-20T04:25:36;8.80;;;3.50;;
60372;SDS011;46216;52.220;5.134;2023-08-20T04:28:01;10.00;;;3.40;;
60372;SDS011;46216;52.220;5.134;2023-08-20T04:30:27;12.63;;;3.72;;
60372;SDS011;46216;52.220;5.134;2023-08-20T04:32:52;9.05;;;3.35;;
60372;SDS011;46216;52.220;5.134;2023-08-20T04:35:18;5.53;;;3.33;;
60372;SDS011;46216;52.220;5.134;2023-08-20T04:37:43;8.30;;;3.53;;
60372;SDS011;46216;52.220;5.134;2023-08-20T04:40:08;10.93;;;3.22;;
60372;SDS011;46216;52.220;5.134;2023-08-20T04:42:34;10.23;;;3.40;;
60372;SDS011;46216;52.220;5.134;2023-08-20T04:45:00;9.32;;;2.83;;
60372;SDS011;46216;52.220;5.134;2023-08-20T04:47:25;9.35;;;3.03;;
60372;SDS011;46216;52.220;5.134;2023-08-20T04:49:50;6.85;;;2.92;;
60372;SDS011;46216;52.220;5.134;2023-08-20T04:52:16;10.48;;;3.22;;
60372;SDS011;46216;52.220;5.134;2023-08-20T04:54:41;10.25;;;3.40;;
60372;SDS011;46216;52.220;5.134;2023-08-20T04:57:07;9.82;;;3.08;;
60372;SDS011;46216;52.220;5.134;2023-08-20T04:59:33;6.28;;;3.22;;
60372;SDS011;46216;52.220;5.134;2023-08-20T05:01:58;7.05;;;3.28;;
60372;SDS011;46216;52.220;5.134;2023-08-20T05:04:24;8.30;;;3.30;;
60372;SDS011;46216;52.220;5.134;2023-08-20T05:06:49;9.60;;;3.20;;
60372;SDS011;46216;52.220;5.134;2023-08-20T05:09:15;6.10;;;3.60;;
60372;SDS011;46216;52.220;5.134;2023-08-20T05:11:41;9.32;;;3.33;;
60372;SDS011;46216;52.220;5.134;2023-08-20T05:14:07;5.97;;;3.08;;
60372;SDS011;46216;52.220;5.134;2023-08-20T05:16:32;7.97;;;3.35;;
60372;SDS011;46216;52.220;5.134;2023-08-20T05:18:57;7.18;;;3.38;;
60372;SDS011;46216;52.220;5.134;2023-08-20T05:21:23;8.93;;;3.35;;
60372;SDS011;46216;52.220;5.134;2023-08-20T05:23:48;8.23;;;3.58;;
60372;SDS011;46216;52.220;5.134;2023-08-20T05:26:14;7.13;;;3.70;;
60372;SDS011;46216;52.220;5.134;2023-08-20T05:28:40;7.25;;;3.33;;
60372;SDS011;46216;52.220;5.134;2023-08-20T05:31:06;14.23;;;4.20;;
60372;SDS011;46216;52.220;5.134;2023-08-20T05:33:31;10.30;;;3.80;;
60372;SDS011;46216;52.220;5.134;2023-08-20T05:35:59;11.10;;;3.70;;
60372;SDS011;46216;52.220;5.134;2023-08-20T05:38:24;10.90;;;4.05;;
60372;SDS011;46216;52.220;5.134;2023-08-20T05:40:50;12.40;;;4.20;;
60372;SDS011;46216;52.220;5.134;2023-08-20T05:43:15;11.63;;;4.13;;
60372;SDS011;46216;52.220;5.134;2023-08-20T05:45:40;8.25;;;4.07;;
60372;SDS011;46216;52.220;5.134;2023-08-20T05:48:06;8.32;;;3.80;;
60372;SDS011;46216;52.220;5.134;2023-08-20T05:50:32;10.10;;;4.05;;
60372;SDS011;46216;52.220;5.134;2023-08-20T05:52:57;7.63;;;3.67;;
60372;SDS011;46216;52.220;5.134;2023-08-20T05:55:22;11.50;;;4.35;;
60372;SDS011;46216;52.220;5.134;2023-08-20T05:57:48;9.52;;;4.00;;
60372;SDS011;46216;52.220;5.134;2023-08-20T06:00:13;6.78;;;3.67;;
60372;SDS011;46216;52.220;5.134;2023-08-20T06:02:40;8.73;;;3.70;;
60372;SDS011;46216;52.220;5.134;2023-08-20T06:05:08;8.02;;;3.58;;
60372;SDS011;46216;52.220;5.134;2023-08-20T06:07:34;7.53;;;3.78;;
60372;SDS011;46216;52.220;5.134;2023-08-20T06:09:59;7.15;;;3.40;;
60372;SDS011;46216;52.220;5.134;2023-08-20T06:12:26;7.32;;;3.38;;
60372;SDS011;46216;52.220;5.134;2023-08-20T06:14:51;8.70;;;3.22;;
60372;SDS011;46216;52.220;5.134;2023-08-20T06:17:17;7.72;;;3.60;;
60372;SDS011;46216;52.220;5.134;2023-08-20T06:19:42;9.57;;;3.20;;
60372;SDS011;46216;52.220;5.134;2023-08-20T06:22:09;9.80;;;3.50;;
60372;SDS011;46216;52.220;5.134;2023-08-20T06:24:37;11.95;;;4.00;;
60372;SDS011;46216;52.220;5.134;2023-08-20T06:27:02;8.38;;;3.35;;
60372;SDS011;46216;52.220;5.134;2023-08-20T06:29:28;13.40;;;3.60;;
60372;SDS011;46216;52.220;5.134;2023-08-20T06:31:54;9.50;;;3.83;;
60372;SDS011;46216;52.220;5.134;2023-08-20T06:34:19;12.07;;;4.07;;
60372;SDS011;46216;52.220;5.134;2023-08-20T06:36:44;13.18;;;4.22;;
60372;SDS011;46216;52.220;5.134;2023-08-20T06:39:10;12.05;;;3.80;;
60372;SDS011;46216;52.220;5.134;2023-08-20T06:41:36;11.60;;;3.80;;
60372;SDS011;46216;52.220;5.134;2023-08-20T06:44:04;10.07;;;3.60;;
60372;SDS011;46216;52.220;5.134;2023-08-20T06:46:30;10.07;;;3.38;;
60372;SDS011;46216;52.220;5.134;2023-08-20T06:48:55;11.43;;;3.50;;
60372;SDS011;46216;52.220;5.134;2023-08-20T06:51:26;8.90;;;3.08;;
60372;SDS011;46216;52.220;5.134;2023-08-20T06:53:55;9.35;;;3.33;;
60372;SDS011;46216;52.220;5.134;2023-08-20T06:56:24;8.23;;;3.00;;
60372;SDS011;46216;52.220;5.134;2023-08-20T06:58:49;10.88;;;3.20;;
60372;SDS011;46216;52.220;5.134;2023-08-20T07:01:15;11.23;;;2.97;;
60372;SDS011;46216;52.220;5.134;2023-08-20T07:03:41;12.07;;;3.60;;
60372;SDS011;46216;52.220;5.134;2023-08-20T07:06:08;7.72;;;3.08;;
60372;SDS011;46216;52.220;5.134;2023-08-20T07:08:35;12.60;;;3.15;;
60372;SDS011;46216;52.220;5.134;2023-08-20T07:11:01;9.05;;;3.08;;
60372;SDS011;46216;52.220;5.134;2023-08-20T07:13:27;10.05;;;3.20;;
60372;SDS011;46216;52.220;5.134;2023-08-20T07:15:53;9.30;;;2.70;;
60372;SDS011;46216;52.220;5.134;2023-08-20T07:18:19;10.38;;;3.03;;
60372;SDS011;46216;52.220;5.134;2023-08-20T07:20:45;14.70;;;3.00;;
60372;SDS011;46216;52.220;5.134;2023-08-20T07:23:10;10.52;;;2.83;;
60372;SDS011;46216;52.220;5.134;2023-08-20T07:25:37;10.38;;;3.05;;
60372;SDS011;46216;52.220;5.134;2023-08-20T07:28:06;10.95;;;3.00;;
60372;SDS011;46216;52.220;5.134;2023-08-20T07:30:33;9.05;;;3.00;;
60372;SDS011;46216;52.220;5.134;2023-08-20T07:32:59;11.57;;;2.97;;
60372;SDS011;46216;52.220;5.134;2023-08-20T07:35:25;11.77;;;3.03;;
60372;SDS011;46216;52.220;5.134;2023-08-20T07:37:51;11.45;;;3.10;;
60372;SDS011;46216;52.220;5.134;2023-08-20T07:40:17;11.52;;;3.35;;
60372;SDS011;46216;52.220;5.134;2023-08-20T07:42:42;10.57;;;2.70;;
60372;SDS011;46216;52.220;5.134;2023-08-20T07:45:08;8.15;;;3.25;;
60372;SDS011;46216;52.220;5.134;2023-08-20T07:47:37;10.20;;;3.35;;
60372;SDS011;46216;52.220;5.134;2023-08-20T07:50:03;11.43;;;2.70;;
60372;SDS011;46216;52.220;5.134;2023-08-20T07:52:32;10.25;;;3.20;;
60372;SDS011;46216;52.220;5.134;2023-08-20T07:54:58;11.20;;;3.47;;
60372;SDS011;46216;52.220;5.134;2023-08-20T07:57:23;11.77;;;3.20;;
60372;SDS011;46216;52.220;5.134;2023-08-20T07:59:49;10.02;;;3.28;;
60372;SDS011;46216;52.220;5.134;2023-08-20T08:02:15;10.20;;;3.20;;
60372;SDS011;46216;52.220;5.134;2023-08-20T08:04:41;11.30;;;3.05;;
60372;SDS011;46216;52.220;5.134;2023-08-20T08:07:07;15.50;;;4.25;;
60372;SDS011;46216;52.220;5.134;2023-08-20T08:09:32;8.40;;;3.40;;
60372;SDS011;46216;52.220;5.134;2023-08-20T08:11:58;8.77;;;3.28;;
60372;SDS011;46216;52.220;5.134;2023-08-20T08:14:24;12.02;;;4.05;;
60372;SDS011;46216;52.220;5.134;2023-08-20T08:16:50;12.80;;;3.72;;
60372;SDS011;46216;52.220;5.134;2023-08-20T08:19:15;9.75;;;3.92;;
60372;SDS011;46216;52.220;5.134;2023-08-20T08:21:42;11.65;;;3.55;;
60372;SDS011;46216;52.220;5.134;2023-08-20T08:24:09;10.57;;;3.13;;
60372;SDS011;46216;52.220;5.134;2023-08-20T08:26:35;8.35;;;2.80;;
60372;SDS011;46216;52.220;5.134;2023-08-20T08:29:01;8.40;;;2.78;;
60372;SDS011;46216;52.220;5.134;2023-08-20T08:31:27;7.47;;;2.67;;
60372;SDS011;46216;52.220;5.134;2023-08-20T08:33:53;10.32;;;2.90;;
60372;SDS011;46216;52.220;5.134;2023-08-20T08:36:18;9.82;;;2.83;;
60372;SDS011;46216;52.220;5.134;2023-08-20T08:38:44;6.72;;;2.70;;
60372;SDS011;46216;52.220;5.134;2023-08-20T08:41:10;7.70;;;3.15;;
60372;SDS011;46216;52.220;5.134;2023-08-20T08:43:40;8.10;;;2.88;;
60372;SDS011;46216;52.220;5.134;2023-08-20T08:46:06;9.30;;;4.13;;
60372;SDS011;46216;52.220;5.134;2023-08-20T08:48:34;7.03;;;2.95;;
60372;SDS011;46216;52.220;5.134;2023-08-20T08:51:02;6.30;;;2.58;;
60372;SDS011;46216;52.220;5.134;2023-08-20T08:53:28;12.38;;;2.90;;
60372;SDS011;46216;52.220;5.134;2023-08-20T08:55:55;8.73;;;2.90;;
60372;SDS011;46216;52.220;5.134;2023-08-20T08:58:21;7.82;;;2.85;;
60372;SDS011;46216;52.220;5.134;2023-08-20T09:00:49;7.88;;;2.50;;
60372;SDS011;46216;52.220;5.134;2023-08-20T09:03:15;7.63;;;2.50;;
60372;SDS011;46216;52.220;5.134;2023-08-20T09:05:47;7.70;;;2.80;;
60372;SDS011;46216;52.220;5.134;2023-08-20T09:08:23;8.98;;;2.17;;
60372;SDS011;46216;52.220;5.134;2023-08-20T09:10:53;7.32;;;2.00;;
60372;SDS011;46216;52.220;5.134;2023-08-20T09:13:23;10.73;;;2.58;;
60372;SDS011;46216;52.220;5.134;2023-08-20T09:15:53;5.43;;;2.22;;
60372;SDS011;46216;52.220;5.134;2023-08-20T09:18:19;7.57;;;2.03;;
60372;SDS011;46216;52.220;5.134;2023-08-20T09:20:45;6.03;;;2.20;;
60372;SDS011;46216;52.220;5.134;2023-08-20T09:23:12;6.25;;;2.13;;
60372;SDS011;46216;52.220;5.134;2023-08-20T09:25:38;5.35;;;1.98;;
60372;SDS011;46216;52.220;5.134;2023-08-20T09:28:04;7.60;;;1.92;;
60372;SDS011;46216;52.220;5.134;2023-08-20T09:30:30;7.63;;;1.90;;
60372;SDS011;46216;52.220;5.134;2023-08-20T09:33:03;7.07;;;2.28;;
60372;SDS011;46216;52.220;5.134;2023-08-20T09:35:33;7.47;;;2.28;;
60372;SDS011;46216;52.220;5.134;2023-08-20T09:37:59;5.55;;;1.88;;
60372;SDS011;46216;52.220;5.134;2023-08-20T09:40:26;8.50;;;2.63;;
60372;SDS011;46216;52.220;5.134;2023-08-20T09:42:52;8.40;;;2.40;;
60372;SDS011;46216;52.220;5.134;2023-08-20T09:45:20;6.25;;;1.85;;
60372;SDS011;46216;52.220;5.134;2023-08-20T09:47:46;5.75;;;1.77;;
60372;SDS011;46216;52.220;5.134;2023-08-20T09:50:14;6.25;;;1.80;;
60372;SDS011;46216;52.220;5.134;2023-08-20T09:53:01;6.20;;;1.88;;
60372;SDS011;46216;52.220;5.134;2023-08-20T09:55:32;8.48;;;1.80;;
60372;SDS011;46216;52.220;5.134;2023-08-20T09:58:01;5.18;;;1.67;;
60372;SDS011;46216;52.220;5.134;2023-08-20T10:00:29;5.72;;;1.90;;
60372;SDS011;46216;52.220;5.134;2023-08-20T10:02:55;5.22;;;1.90;;
60372;SDS011;46216;52.220;5.134;2023-08-20T10:05:21;7.75;;;1.85;;
60372;SDS011;46216;52.220;5.134;2023-08-20T10:07:48;5.60;;;1.70;;
60372;SDS011;46216;52.220;5.134;2023-08-20T10:10:14;8.23;;;1.75;;
60372;SDS011;46216;52.220;5.134;2023-08-20T10:12:41;4.38;;;1.48;;
60372;SDS011;46216;52.220;5.134;2023-08-20T10:15:09;6.50;;;1.70;;
60372;SDS011;46216;52.220;5.134;2023-08-20T10:17:35;5.00;;;1.27;;
60372;SDS011;46216;52.220;5.134;2023-08-20T10:20:03;5.10;;;1.35;;
60372;SDS011;46216;52.220;5.134;2023-08-20T10:22:33;4.07;;;1.33;;
60372;SDS011;46216;52.220;5.134;2023-08-20T10:25:06;4.95;;;1.40;;
60372;SDS011;46216;52.220;5.134;2023-08-20T10:27:36;6.03;;;1.45;;
60372;SDS011;46216;52.220;5.134;2023-08-20T10:30:11;5.53;;;1.40;;
60372;SDS011;46216;52.220;5.134;2023-08-20T10:32:46;4.82;;;1.48;;
60372;SDS011;46216;52.220;5.134;2023-08-20T10:35:17;6.45;;;1.20;;
60372;SDS011;46216;52.220;5.134;2023-08-20T10:38:05;5.97;;;1.38;;
60372;SDS011;46216;52.220;5.134;2023-08-20T10:43:29;5.18;;;1.63;;
60372;SDS011;46216;52.220;5.134;2023-08-20T10:46:26;4.32;;;1.60;;
60372;SDS011;46216;52.220;5.134;2023-08-20T10:48:58;6.80;;;1.40;;
60372;SDS011;46216;52.220;5.134;2023-08-20T10:51:36;5.97;;;1.50;;
60372;SDS011;46216;52.220;5.134;2023-08-20T10:59:15;4.60;;;1.40;;
60372;SDS011;46216;52.220;5.134;2023-08-20T11:01:45;5.20;;;1.50;;
60372;SDS011;46216;52.220;5.134;2023-08-20T11:04:12;6.88;;;1.50;;
60372;SDS011;46216;52.220;5.134;2023-08-20T11:06:38;4.70;;;1.58;;
60372;SDS011;46216;52.220;5.134;2023-08-20T11:09:04;5.57;;;1.65;;
60372;SDS011;46216;52.220;5.134;2023-08-20T11:11:30;7.05;;;1.50;;
60372;SDS011;46216;52.220;5.134;2023-08-20T11:13:56;6.90;;;1.58;;
60372;SDS011;46216;52.220;5.134;2023-08-20T11:16:22;5.65;;;1.38;;
60372;SDS011;46216;52.220;5.134;2023-08-20T11:18:47;5.25;;;1.55;;
60372;SDS011;46216;52.220;5.134;2023-08-20T11:21:13;5.20;;;1.40;;
60372;SDS011;46216;52.220;5.134;2023-08-20T11:23:38;7.68;;;1.60;;
60372;SDS011;46216;52.220;5.134;2023-08-20T11:26:07;6.85;;;1.70;;
60372;SDS011;46216;52.220;5.134;2023-08-20T11:28:32;6.57;;;1.33;;
60372;SDS011;46216;52.220;5.134;2023-08-20T11:30:58;3.90;;;1.27;;
60372;SDS011;46216;52.220;5.134;2023-08-20T11:33:23;4.97;;;1.30;;
60372;SDS011;46216;52.220;5.134;2023-08-20T11:35:49;7.00;;;1.60;;
60372;SDS011;46216;52.220;5.134;2023-08-20T11:38:16;5.75;;;1.60;;
60372;SDS011;46216;52.220;5.134;2023-08-20T11:40:44;5.43;;;1.55;;
60372;SDS011;46216;52.220;5.134;2023-08-20T11:43:09;5.60;;;1.48;;
60372;SDS011;46216;52.220;5.134;2023-08-20T11:45:43;5.40;;;1.55;;
60372;SDS011;46216;52.220;5.134;2023-08-20T11:48:10;5.70;;;1.50;;
60372;SDS011;46216;52.220;5.134;2023-08-20T11:50:35;3.70;;;1.30;;
60372;SDS011;46216;52.220;5.134;2023-08-20T11:53:02;5.90;;;1.85;;
60372;SDS011;46216;52.220;5.134;2023-08-20T11:55:29;6.78;;;1.40;;
60372;SDS011;46216;52.220;5.134;2023-08-20T11:57:55;4.30;;;1.40;;
60372;SDS011;46216;52.220;5.134;2023-08-20T12:00:24;4.03;;;1.50;;
60372;SDS011;46216;52.220;5.134;2023-08-20T12:02:54;6.70;;;1.60;;
60372;SDS011;46216;52.220;5.134;2023-08-20T12:05:21;5.80;;;1.42;;
60372;SDS011;46216;52.220;5.134;2023-08-20T12:08:03;7.10;;;1.67;;
60372;SDS011;46216;52.220;5.134;2023-08-20T12:10:30;3.50;;;1.30;;
60372;SDS011;46216;52.220;5.134;2023-08-20T12:12:57;4.55;;;1.42;;
60372;SDS011;46216;52.220;5.134;2023-08-20T12:15:23;6.28;;;1.77;;
60372;SDS011;46216;52.220;5.134;2023-08-20T12:20:32;6.18;;;1.63;;
60372;SDS011;46216;52.220;5.134;2023-08-20T12:22:59;8.13;;;1.80;;
60372;SDS011;46216;52.220;5.134;2023-08-20T12:25:27;4.53;;;1.30;;
60372;SDS011;46216;52.220;5.134;2023-08-20T12:27:55;6.70;;;1.80;;
60372;SDS011;46216;52.220;5.134;2023-08-20T12:30:21;5.30;;;1.50;;
60372;SDS011;46216;52.220;5.134;2023-08-20T12:32:46;5.07;;;1.30;;
60372;SDS011;46216;52.220;5.134;2023-08-20T12:35:12;4.30;;;1.50;;
60372;SDS011;46216;52.220;5.134;2023-08-20T12:37:38;4.93;;;1.27;;
60372;SDS011;46216;52.220;5.134;2023-08-20T12:40:04;5.30;;;1.13;;
60372;SDS011;46216;52.220;5.134;2023-08-20T12:42:33;4.75;;;1.45;;
60372;SDS011;46216;52.220;5.134;2023-08-20T12:44:58;6.18;;;1.50;;
60372;SDS011;46216;52.220;5.134;2023-08-20T12:47:23;5.57;;;1.23;;
60372;SDS011;46216;52.220;5.134;2023-08-20T12:49:49;4.22;;;1.13;;
60372;SDS011;46216;52.220;5.134;2023-08-20T12:52:14;3.83;;;1.30;;
60372;SDS011;46216;52.220;5.134;2023-08-20T12:54:39;3.28;;;1.20;;
60372;SDS011;46216;52.220;5.134;2023-08-20T12:57:05;4.70;;;1.20;;
60372;SDS011;46216;52.220;5.134;2023-08-20T12:59:30;2.97;;;1.10;;
60372;SDS011;46216;52.220;5.134;2023-08-20T13:01:56;4.30;;;1.30;;
60372;SDS011;46216;52.220;5.134;2023-08-20T13:04:23;4.93;;;1.27;;
60372;SDS011;46216;52.220;5.134;2023-08-20T13:06:48;4.45;;;1.17;;
60372;SDS011;46216;52.220;5.134;2023-08-20T13:09:14;3.00;;;1.20;;
60372;SDS011;46216;52.220;5.134;2023-08-20T13:11:43;3.35;;;1.20;;
60372;SDS011;46216;52.220;5.134;2023-08-20T13:14:12;3.67;;;1.20;;
60372;SDS011;46216;52.220;5.134;2023-08-20T13:16:37;4.68;;;1.20;;
60372;SDS011;46216;52.220;5.134;2023-08-20T13:19:03;3.22;;;0.90;;
60372;SDS011;46216;52.220;5.134;2023-08-20T13:21:29;4.38;;;1.15;;
60372;SDS011;46216;52.220;5.134;2023-08-20T13:23:54;3.70;;;1.13;;
60372;SDS011;46216;52.220;5.134;2023-08-20T13:26:20;4.78;;;1.25;;
60372;SDS011;46216;52.220;5.134;2023-08-20T13:28:47;4.43;;;1.10;;
60372;SDS011;46216;52.220;5.134;2023-08-20T13:31:12;5.03;;;1.10;;
60372;SDS011;46216;52.220;5.134;2023-08-20T13:33:39;2.90;;;1.10;;
60372;SDS011;46216;52.220;5.134;2023-08-20T13:36:05;2.75;;;1.00;;
60372;SDS011;46216;52.220;5.134;2023-08-20T13:38:32;4.40;;;1.30;;
60372;SDS011;46216;52.220;5.134;2023-08-20T13:40:57;3.72;;;1.08;;
60372;SDS011;46216;52.220;5.134;2023-08-20T13:43:23;3.25;;;1.00;;
60372;SDS011;46216;52.220;5.134;2023-08-20T13:45:48;3.08;;;1.13;;
60372;SDS011;46216;52.220;5.134;2023-08-20T13:48:24;2.78;;;1.05;;
60372;SDS011;46216;52.220;5.134;2023-08-20T13:50:50;2.97;;;1.10;;
60372;SDS011;46216;52.220;5.134;2023-08-20T13:53:15;5.28;;;1.17;;
60372;SDS011;46216;52.220;5.134;2023-08-20T13:55:40;3.30;;;0.95;;
60372;SDS011;46216;52.220;5.134;2023-08-20T13:58:06;4.05;;;0.93;;
60372;SDS011;46216;52.220;5.134;2023-08-20T14:00:31;3.67;;;1.33;;
60372;SDS011;46216;52.220;5.134;2023-08-20T14:02:57;3.20;;;0.90;;
60372;SDS011;46216;52.220;5.134;2023-08-20T14:05:22;3.13;;;1.15;;
60372;SDS011;46216;52.220;5.134;2023-08-20T14:07:49;3.20;;;1.20;;
60372;SDS011;46216;52.220;5.134;2023-08-20T14:10:14;3.60;;;0.82;;
60372;SDS011;46216;52.220;5.134;2023-08-20T14:12:40;1.92;;;0.80;;
60372;SDS011;46216;52.220;5.134;2023-08-20T14:15:06;4.18;;;1.05;;
60372;SDS011;46216;52.220;5.134;2023-08-20T14:17:33;3.60;;;1.08;;
60372;SDS011;46216;52.220;5.134;2023-08-20T14:19:58;3.13;;;1.10;;
60372;SDS011;46216;52.220;5.134;2023-08-20T14:22:23;5.00;;;0.85;;
60372;SDS011;46216;52.220;5.134;2023-08-20T14:24:49;3.67;;;1.13;;
60372;SDS011;46216;52.220;5.134;2023-08-20T14:27:14;4.22;;;1.05;;
60372;SDS011;46216;52.220;5.134;2023-08-20T14:29:40;3.42;;;1.00;;
60372;SDS011;46216;52.220;5.134;2023-08-20T14:32:06;3.05;;;1.05;;
60372;SDS011;46216;52.220;5.134;2023-08-20T14:34:32;3.60;;;1.13;;
60372;SDS011;46216;52.220;5.134;2023-08-20T14:36:57;4.03;;;1.25;;
60372;SDS011;46216;52.220;5.134;2023-08-20T14:39:23;4.75;;;1.17;;
60372;SDS011;46216;52.220;5.134;2023-08-20T14:41:48;3.60;;;1.10;;
60372;SDS011;46216;52.220;5.134;2023-08-20T14:44:14;3.38;;;1.00;;
60372;SDS011;46216;52.220;5.134;2023-08-20T14:46:39;2.42;;;0.93;;
60372;SDS011;46216;52.220;5.134;2023-08-20T14:49:05;3.83;;;1.08;;
60372;SDS011;46216;52.220;5.134;2023-08-20T14:51:30;2.83;;;1.15;;
60372;SDS011;46216;52.220;5.134;2023-08-20T14:53:56;3.55;;;1.30;;
60372;SDS011;46216;52.220;5.134;2023-08-20T14:56:21;3.70;;;1.15;;
60372;SDS011;46216;52.220;5.134;2023-08-20T14:58:46;6.38;;;1.30;;
60372;SDS011;46216;52.220;5.134;2023-08-20T15:01:12;5.43;;;1.63;;